Ambler, Alaska
Current Conditions -  °F | °C
As of 9:56 PM on Friday 24 Oct 2014 (Local Time) from PAFM Reporting Station
Overcast Overcast  
Wind Chill: 19°   Ceiling: 3400
Heat Index: 25°   Visibility: 5mi
Dew Point: 19°   Wind: 5mph
Humidity: 80%   Direction: 100°E
Pressure: 29.88"   Gusts: NA
Location:  67.09°N, 157.85°W
Report Text: PAFM 250556Z AUTO 10004KT 5SM OVC034 M04/M07 A2988 RMK AO1 11040 21040 54000
Loading
Personal Weather Stations






























Interactive Weather Map
Tropical Storm Tracking
New forecast layout! Learn more

10-Day Weather Forecast

Advertisements
Track Severe Weather on mobile